createdAt,value
2018-04-28T00:00:55.166Z,56.74
2018-04-28T00:03:23.266Z,56.71
2018-04-28T00:05:51.429Z,56.92
2018-04-28T00:08:24.352Z,57.09
2018-04-28T00:10:52.469Z,56.68
2018-04-28T00:13:20.651Z,56.78
2018-04-28T00:15:48.948Z,56.80
2018-04-28T00:18:19.894Z,57.04
2018-04-28T00:20:48.023Z,56.99
2018-04-28T00:23:16.176Z,57.05
2018-04-28T00:25:49.996Z,56.94
2018-04-28T00:28:27.429Z,56.89
2018-04-28T00:30:59.122Z,56.97
2018-04-28T00:33:29.644Z,56.87
2018-04-28T00:36:07.450Z,57.18
2018-04-28T00:38:37.773Z,57.30
2018-04-28T00:41:05.949Z,57.42
2018-04-28T00:43:34.030Z,57.42
2018-04-28T00:46:08.056Z,57.33
2018-04-28T00:48:42.488Z,57.67
2018-04-28T00:51:25.401Z,57.71
2018-04-28T00:53:56.240Z,57.72
2018-04-28T00:56:24.353Z,60.08
2018-04-28T00:58:55.297Z,60.79
2018-04-28T01:01:35.002Z,60.49
2018-04-28T01:04:12.726Z,58.97
2018-04-28T01:06:40.816Z,58.06
2018-04-28T01:09:10.682Z,60.22
2018-04-28T01:11:42.596Z,59.65
2018-04-28T01:14:14.415Z,59.58
2018-04-28T01:16:55.098Z,58.75
2018-04-28T01:19:34.542Z,57.88
2018-04-28T01:22:06.461Z,57.17
2018-04-28T01:24:36.432Z,57.49
2018-04-28T01:27:09.343Z,57.95
2018-04-28T01:29:50.143Z,58.30
2018-04-28T01:32:33.896Z,61.79
2018-04-28T01:35:06.023Z,60.57
2018-04-28T01:37:39.797Z,59.10
2018-04-28T01:40:12.830Z,58.11
2018-04-28T01:45:49.249Z,58.45
2018-04-28T01:48:25.010Z,58.85
2018-04-28T01:57:07.404Z,67.42
2018-04-28T02:03:00.634Z,64.07
2018-04-28T02:08:34.532Z,63.03
2018-04-28T02:11:03.610Z,64.55
2018-04-28T02:13:40.292Z,63.96
2018-04-28T02:16:13.286Z,61.13
2018-04-28T02:21:54.790Z,59.97
2018-04-28T02:24:38.710Z,59.13
2018-04-28T02:27:06.850Z,59.33
2018-04-28T02:29:40.770Z,58.80
2018-04-28T02:32:12.738Z,58.49
2018-04-28T02:34:51.658Z,58.37
2018-04-28T02:37:27.766Z,58.24
2018-04-28T02:43:02.551Z,57.91
2018-04-28T02:45:37.516Z,60.37
2018-04-28T02:48:12.224Z,59.96
2018-04-28T02:50:46.438Z,59.54
2018-04-28T02:53:27.971Z,58.88
2018-04-28T02:56:07.778Z,58.12
2018-04-28T02:58:36.786Z,57.85
2018-04-28T03:04:07.194Z,58.00
2018-04-28T03:06:45.234Z,58.11
2018-04-28T03:09:13.335Z,58.59
2018-04-28T03:11:45.433Z,62.27
2018-04-28T03:14:18.337Z,59.88
2018-04-28T03:16:46.448Z,58.65
2018-04-28T03:19:15.434Z,58.19
2018-04-28T03:21:51.222Z,58.07
2018-04-28T03:27:32.916Z,57.67
2018-04-28T03:30:02.788Z,57.62
2018-04-28T03:32:42.694Z,57.52
2018-04-28T03:35:18.488Z,57.47
2018-04-28T03:38:01.473Z,57.56
2018-04-28T03:40:29.565Z,57.32
2018-04-28T03:43:02.475Z,57.56
2018-04-28T03:45:34.864Z,57.76
2018-04-28T03:48:16.534Z,57.92
2018-04-28T03:53:53.345Z,57.66
2018-04-28T03:56:38.935Z,57.76
2018-04-28T03:59:18.624Z,57.32
2018-04-28T04:01:58.866Z,57.23
2018-04-28T04:04:29.603Z,57.23
2018-04-28T04:07:01.382Z,57.42
2018-04-28T04:09:32.155Z,57.27
2018-04-28T04:12:22.018Z,57.05
2018-04-28T04:18:16.578Z,59.10
2018-04-28T04:20:57.266Z,57.52
2018-04-28T04:27:00.644Z,57.06
2018-04-28T04:29:35.510Z,57.30
2018-04-28T04:32:05.449Z,56.46
2018-04-28T04:37:56.469Z,64.63
2018-04-28T04:43:51.351Z,65.75
2018-04-28T04:49:33.099Z,66.38
2018-04-28T04:55:22.578Z,65.39
2018-04-28T04:57:57.368Z,65.30
2018-04-28T05:03:49.168Z,62.20
2018-04-28T05:09:35.750Z,59.79
2018-04-28T05:12:15.423Z,58.75
2018-04-28T05:18:09.118Z,57.50
2018-04-28T05:23:59.768Z,62.24
2018-04-28T05:26:46.438Z,59.90
2018-04-28T05:29:21.342Z,58.91
2018-04-28T05:35:22.002Z,56.27
2018-04-28T05:37:59.689Z,56.22
2018-04-28T05:40:34.407Z,53.47
2018-04-28T05:43:13.649Z,53.71
2018-04-28T05:49:16.082Z,55.72
2018-04-28T05:52:07.825Z,56.25
2018-04-28T05:54:37.737Z,56.48
2018-04-28T06:00:36.181Z,54.60
2018-04-28T06:03:19.830Z,52.71
2018-04-28T06:08:55.270Z,50.43
2018-04-28T06:11:35.098Z,50.81
2018-04-28T06:14:09.229Z,50.82
2018-04-28T06:16:52.417Z,48.50
2018-04-28T06:19:32.419Z,49.98
2018-04-28T06:22:00.447Z,49.68
2018-04-28T06:24:28.500Z,46.49
2018-04-28T06:26:57.588Z,47.53
2018-04-28T06:29:25.612Z,46.66
2018-04-28T06:31:53.747Z,47.20
2018-04-28T06:34:21.934Z,48.15
2018-04-28T06:36:50.055Z,49.56
2018-04-28T06:39:18.173Z,48.22
2018-04-28T06:41:46.233Z,47.14
2018-04-28T06:44:14.479Z,45.94
2018-04-28T06:46:42.634Z,45.21
2018-04-28T06:49:10.766Z,45.41
2018-04-28T06:51:38.837Z,44.08
2018-04-28T06:54:06.874Z,44.39
2018-04-28T06:56:34.998Z,42.47
2018-04-28T06:59:03.143Z,42.22
2018-04-28T07:01:31.255Z,41.76
2018-04-28T07:04:00.420Z,40.69
2018-04-28T07:06:28.544Z,40.76
2018-04-28T07:08:56.595Z,41.84
2018-04-28T07:11:24.716Z,41.28
2018-04-28T07:13:52.847Z,39.87
2018-04-28T07:16:21.022Z,39.04
2018-04-28T07:18:49.027Z,40.77
2018-04-28T07:21:17.093Z,40.61
2018-04-28T07:23:45.163Z,38.81
2018-04-28T07:26:13.314Z,37.48
2018-04-28T07:28:41.427Z,39.28
2018-04-28T07:31:09.521Z,38.19
2018-04-28T07:33:37.657Z,37.72
2018-04-28T07:36:05.741Z,38.67
2018-04-28T07:38:33.843Z,37.67
2018-04-28T07:41:01.915Z,36.30
2018-04-28T07:43:30.099Z,35.21
2018-04-28T07:45:58.477Z,34.72
2018-04-28T07:48:26.592Z,34.61
2018-04-28T07:50:54.775Z,34.36
2018-04-28T07:53:22.869Z,35.12
2018-04-28T07:55:50.867Z,35.98
2018-04-28T07:58:18.950Z,33.88
2018-04-28T08:00:46.954Z,31.67
2018-04-28T08:03:15.033Z,31.14
2018-04-28T08:05:43.152Z,31.05
2018-04-28T08:08:11.263Z,29.60
2018-04-28T08:10:39.415Z,28.99
2018-04-28T08:13:07.516Z,30.60
2018-04-28T08:15:35.654Z,30.31
2018-04-28T08:18:03.765Z,29.93
2018-04-28T08:20:31.929Z,29.41
2018-04-28T08:23:00.023Z,29.98
2018-04-28T08:25:28.126Z,28.33
2018-04-28T08:27:56.245Z,28.60
2018-04-28T08:30:24.343Z,28.98
2018-04-28T08:32:52.427Z,29.11
2018-04-28T08:35:20.493Z,29.12
2018-04-28T08:37:48.691Z,28.09
2018-04-28T08:40:16.839Z,26.82
2018-04-28T08:42:44.969Z,25.13
2018-04-28T08:45:13.018Z,25.96
2018-04-28T08:47:41.671Z,25.28
2018-04-28T08:50:09.826Z,26.81
2018-04-28T08:52:37.844Z,27.10
2018-04-28T08:55:05.971Z,26.98
2018-04-28T08:57:34.027Z,25.51
2018-04-28T09:00:13.886Z,26.21
2018-04-28T09:02:41.946Z,26.04
2018-04-28T09:05:10.506Z,23.65
2018-04-28T09:07:39.526Z,24.20
2018-04-28T09:10:07.629Z,26.24
2018-04-28T09:12:35.640Z,27.68
2018-04-28T09:15:03.628Z,28.16
2018-04-28T09:17:31.703Z,26.38
2018-04-28T09:19:59.643Z,25.67
2018-04-28T09:22:27.646Z,27.42
2018-04-28T09:24:55.628Z,26.88
2018-04-28T09:27:23.770Z,25.65
2018-04-28T09:29:51.850Z,25.82
2018-04-28T09:32:19.829Z,24.97
2018-04-28T09:34:47.866Z,25.32
2018-04-28T09:37:15.881Z,25.36
2018-04-28T09:39:43.941Z,24.35
2018-04-28T09:42:11.986Z,23.54
2018-04-28T09:44:40.019Z,24.59
2018-04-28T09:47:08.071Z,24.34
2018-04-28T09:49:36.540Z,24.73
2018-04-28T09:52:04.564Z,24.36
2018-04-28T09:54:32.605Z,23.36
2018-04-28T09:57:00.709Z,22.44
2018-04-28T09:59:28.788Z,23.60
2018-04-28T10:01:58.836Z,23.35
2018-04-28T10:04:26.925Z,23.63
2018-04-28T10:06:55.004Z,21.94
2018-04-28T10:09:23.013Z,23.06
2018-04-28T10:11:51.067Z,22.49
2018-04-28T10:14:19.072Z,21.21
2018-04-28T10:16:47.135Z,22.38
2018-04-28T10:19:15.193Z,24.00
2018-04-28T10:21:43.194Z,23.29
2018-04-28T10:24:11.243Z,22.09
2018-04-28T10:26:39.258Z,21.43
2018-04-28T10:29:07.271Z,19.69
2018-04-28T10:31:35.352Z,20.65
2018-04-28T10:34:03.431Z,20.92
2018-04-28T10:36:31.507Z,20.80
2018-04-28T10:38:59.544Z,20.25
2018-04-28T10:41:27.604Z,20.89
2018-04-28T10:43:55.681Z,20.85
2018-04-28T10:46:23.811Z,21.64
2018-04-28T10:48:51.883Z,21.42
2018-04-28T10:51:20.183Z,21.10
2018-04-28T10:53:48.198Z,20.64
2018-04-28T10:56:16.201Z,19.96
2018-04-28T10:58:44.216Z,23.41
2018-04-28T11:01:12.352Z,20.48
2018-04-28T11:03:40.457Z,21.02
2018-04-28T11:06:08.557Z,20.67
2018-04-28T11:08:36.689Z,19.58
2018-04-28T11:11:04.703Z,20.05
2018-04-28T11:13:32.741Z,21.15
2018-04-28T11:16:00.745Z,21.57
2018-04-28T11:18:28.763Z,20.64
2018-04-28T11:20:56.895Z,21.46
2018-04-28T11:23:24.851Z,21.49
2018-04-28T11:25:52.870Z,21.81
2018-04-28T11:28:20.878Z,20.95
2018-04-28T11:30:48.929Z,21.17
2018-04-28T11:33:16.915Z,20.51
2018-04-28T11:35:44.913Z,19.98
2018-04-28T11:38:13.091Z,20.74
2018-04-28T11:40:41.255Z,20.69
2018-04-28T11:43:09.330Z,20.44
2018-04-28T11:45:37.595Z,20.05
2018-04-28T11:48:05.682Z,22.17
2018-04-28T11:50:33.642Z,23.12
2018-04-28T11:53:02.015Z,24.68
2018-04-28T11:55:29.978Z,23.74
2018-04-28T11:57:58.016Z,25.75
2018-04-28T12:00:26.107Z,26.94
2018-04-28T12:02:54.152Z,25.83
2018-04-28T12:05:22.212Z,24.19
2018-04-28T12:07:50.255Z,23.73
2018-04-28T12:10:18.398Z,22.60
2018-04-28T12:12:46.400Z,23.08
2018-04-28T12:15:14.477Z,21.59
2018-04-28T12:17:42.522Z,21.17
2018-04-28T12:20:10.521Z,21.86
2018-04-28T12:22:38.638Z,21.47
2018-04-28T12:25:06.700Z,20.16
2018-04-28T12:27:34.773Z,21.25
2018-04-28T12:30:02.851Z,20.58
2018-04-28T12:32:30.899Z,20.07
2018-04-28T12:34:59.019Z,21.79
2018-04-28T12:37:27.141Z,24.58
2018-04-28T12:39:55.236Z,25.23
2018-04-28T12:42:23.315Z,24.96
2018-04-28T12:44:51.372Z,24.62
2018-04-28T12:47:19.389Z,25.80
2018-04-28T12:49:47.418Z,25.73
2018-04-28T12:52:15.474Z,25.33
2018-04-28T12:54:43.967Z,24.63
2018-04-28T12:57:11.962Z,23.87
2018-04-28T12:59:39.904Z,24.57
2018-04-28T13:02:08.048Z,22.89
2018-04-28T13:04:36.029Z,22.39
2018-04-28T13:07:04.074Z,21.18
2018-04-28T13:09:32.117Z,20.76
2018-04-28T13:12:00.058Z,21.34
2018-04-28T13:14:28.079Z,21.42
2018-04-28T13:16:56.057Z,20.91
2018-04-28T13:19:24.070Z,21.18
2018-04-28T13:21:52.070Z,20.65
2018-04-28T13:24:20.131Z,22.14
2018-04-28T13:26:48.202Z,22.76
2018-04-28T13:29:16.366Z,23.95
2018-04-28T13:31:44.287Z,23.54
2018-04-28T13:34:12.397Z,23.61
2018-04-28T13:36:40.513Z,24.06
2018-04-28T13:39:08.594Z,24.13
2018-04-28T13:41:36.622Z,25.35
2018-04-28T13:44:04.644Z,27.99
2018-04-28T13:46:32.683Z,28.21
2018-04-28T13:49:00.766Z,27.71
2018-04-28T13:51:28.919Z,28.34
2018-04-28T13:53:56.942Z,28.12
2018-04-28T13:56:25.256Z,28.82
2018-04-28T13:58:53.296Z,29.75
2018-04-28T14:01:21.302Z,29.58
2018-04-28T14:03:49.356Z,32.19
2018-04-28T14:06:17.499Z,32.25
2018-04-28T14:08:45.557Z,33.43
2018-04-28T14:11:13.568Z,30.63
2018-04-28T14:13:41.506Z,30.15
2018-04-28T14:16:09.636Z,29.47
2018-04-28T14:18:37.686Z,30.19
2018-04-28T14:21:05.839Z,27.92
2018-04-28T14:23:33.783Z,27.49
2018-04-28T14:26:01.872Z,30.34
2018-04-28T14:28:29.874Z,32.23
2018-04-28T14:30:57.884Z,33.34
2018-04-28T14:33:25.905Z,33.04
2018-04-28T14:35:53.963Z,32.68
2018-04-28T14:38:22.015Z,32.80
2018-04-28T14:40:49.999Z,30.94
2018-04-28T14:43:18.009Z,31.93
2018-04-28T14:45:45.981Z,31.56
2018-04-28T14:48:15.287Z,34.14
2018-04-28T14:50:43.343Z,36.68
2018-04-28T14:53:11.334Z,38.69
2018-04-28T14:55:39.422Z,39.09
2018-04-28T14:58:07.739Z,39.26
2018-04-28T15:00:35.789Z,37.05
2018-04-28T15:03:03.788Z,35.35
2018-04-28T15:05:31.813Z,40.19
2018-04-28T15:07:59.835Z,42.74
2018-04-28T15:10:27.881Z,38.58
2018-04-28T15:12:55.972Z,38.50
2018-04-28T15:15:23.979Z,40.56
2018-04-28T15:17:51.944Z,41.30
2018-04-28T15:20:19.992Z,41.64
2018-04-28T15:22:48.044Z,41.85
2018-04-28T15:25:16.023Z,44.17
2018-04-28T15:27:44.120Z,46.89
2018-04-28T15:30:12.139Z,43.36
2018-04-28T15:32:40.158Z,45.35
2018-04-28T15:35:08.236Z,45.46
2018-04-28T15:37:36.294Z,46.98
2018-04-28T15:40:04.353Z,48.09
2018-04-28T15:42:32.363Z,50.82
2018-04-28T15:45:00.410Z,54.36
2018-04-28T15:47:28.408Z,51.75
2018-04-28T15:49:56.469Z,53.76
2018-04-28T15:52:24.522Z,52.18
2018-04-28T15:54:52.552Z,54.18
2018-04-28T15:57:20.549Z,50.36
2018-04-28T15:59:48.947Z,53.76
2018-04-28T16:02:16.935Z,55.02
2018-04-28T16:04:45.010Z,56.64
2018-04-28T16:07:13.073Z,57.86
2018-04-28T16:09:41.152Z,58.11
2018-04-28T16:12:09.209Z,57.64
2018-04-28T16:14:37.265Z,56.24
2018-04-28T16:17:05.358Z,56.33
2018-04-28T16:19:33.438Z,53.04
2018-04-28T16:22:01.465Z,52.73
2018-04-28T16:24:29.483Z,52.80
2018-04-28T16:26:57.555Z,51.84
2018-04-28T16:29:25.541Z,53.07
2018-04-28T16:31:53.588Z,54.45
2018-04-28T16:34:21.578Z,52.29
2018-04-28T16:36:49.636Z,51.89
2018-04-28T16:39:17.645Z,51.65
2018-04-28T16:41:45.711Z,51.84
2018-04-28T16:44:13.837Z,53.20
2018-04-28T16:46:41.826Z,54.97
2018-04-28T16:49:09.840Z,51.81
2018-04-28T16:51:38.039Z,51.78
2018-04-28T16:54:06.146Z,52.45
2018-04-28T16:56:34.174Z,53.03
2018-04-28T16:59:02.314Z,52.12
2018-04-28T17:01:30.962Z,53.76
2018-04-28T17:03:58.981Z,52.86
2018-04-28T17:06:27.164Z,53.81
2018-04-28T17:08:55.110Z,55.24
2018-04-28T17:11:23.109Z,56.19
2018-04-28T17:13:51.236Z,55.69
2018-04-28T17:16:19.201Z,57.66
2018-04-28T17:18:47.206Z,54.79
2018-04-28T17:21:15.234Z,54.47
2018-04-28T17:23:43.239Z,55.63
2018-04-28T17:26:11.302Z,55.04
2018-04-28T17:28:39.376Z,58.56
2018-04-28T17:31:07.461Z,58.85
2018-04-28T17:33:35.459Z,57.81
2018-04-28T17:36:03.496Z,59.02
2018-04-28T17:38:31.501Z,58.17
2018-04-28T17:40:59.640Z,56.73
2018-04-28T17:43:27.674Z,56.02
2018-04-28T17:45:55.779Z,58.14
2018-04-28T17:48:24.181Z,58.36
2018-04-28T17:50:52.169Z,56.04
2018-04-28T17:53:20.269Z,55.89
2018-04-28T17:55:48.284Z,55.78
2018-04-28T17:58:16.286Z,55.17
2018-04-28T18:00:44.288Z,55.55
2018-04-28T18:03:12.634Z,57.98
2018-04-28T18:05:40.581Z,55.74
2018-04-28T18:08:08.635Z,55.30
2018-04-28T18:10:36.646Z,56.84
2018-04-28T18:13:04.665Z,57.14
2018-04-28T18:15:32.681Z,57.15
2018-04-28T18:18:00.584Z,56.72
2018-04-28T18:20:28.593Z,59.01
2018-04-28T18:22:56.649Z,56.96
2018-04-28T18:25:24.646Z,56.81
2018-04-28T18:27:52.612Z,56.07
2018-04-28T18:30:20.641Z,55.47
2018-04-28T18:32:48.615Z,55.10
2018-04-28T18:35:16.673Z,55.76
2018-04-28T18:37:44.797Z,57.55
2018-04-28T18:40:12.811Z,55.93
2018-04-28T18:42:40.805Z,56.04
2018-04-28T18:45:08.791Z,56.28
2018-04-28T18:47:36.830Z,56.10
2018-04-28T18:50:04.880Z,56.19
2018-04-28T18:52:32.894Z,61.49
2018-04-28T18:55:00.913Z,63.39
2018-04-28T18:57:28.879Z,60.90
2018-04-28T18:59:56.972Z,61.98
2018-04-28T19:02:24.967Z,62.53
2018-04-28T19:04:53.357Z,62.71
2018-04-28T19:07:21.347Z,62.71
2018-04-28T19:09:49.416Z,61.79
2018-04-28T19:12:17.457Z,62.11
2018-04-28T19:14:45.451Z,63.03
2018-04-28T19:17:13.463Z,62.31
2018-04-28T19:19:41.554Z,60.22
2018-04-28T19:22:09.651Z,61.83
2018-04-28T19:24:37.562Z,62.10
2018-04-28T19:27:05.673Z,62.71
2018-04-28T19:29:33.643Z,62.79
2018-04-28T19:32:01.650Z,61.02
2018-04-28T19:34:29.713Z,58.76
2018-04-28T19:36:57.766Z,58.17
2018-04-28T19:39:26.799Z,57.61
2018-04-28T19:41:54.845Z,60.00
2018-04-28T19:44:22.857Z,62.32
2018-04-28T19:46:50.907Z,62.96
2018-04-28T19:49:18.914Z,62.93
2018-04-28T19:51:46.883Z,61.14
2018-04-28T19:54:14.993Z,60.46
2018-04-28T19:56:42.985Z,59.68
2018-04-28T19:59:11.059Z,61.89
2018-04-28T20:01:39.065Z,61.12
2018-04-28T20:04:07.173Z,63.52
2018-04-28T20:06:35.437Z,62.56
2018-04-28T20:09:03.476Z,63.20
2018-04-28T20:11:31.471Z,61.45
2018-04-28T20:13:59.573Z,62.52
2018-04-28T20:16:27.663Z,64.14
2018-04-28T20:18:55.709Z,63.20
2018-04-28T20:21:23.827Z,62.07
2018-04-28T20:24:03.594Z,61.78
2018-04-28T20:26:31.565Z,61.47
2018-04-28T20:28:59.586Z,60.51
2018-04-28T20:31:27.649Z,59.18
2018-04-28T20:33:55.688Z,59.06
2018-04-28T20:36:23.735Z,59.41
2018-04-28T20:38:51.734Z,58.56
2018-04-28T20:41:19.767Z,61.66
2018-04-28T20:43:47.823Z,62.12
2018-04-28T20:46:15.843Z,61.97
2018-04-28T20:48:43.798Z,62.43
2018-04-28T20:51:11.834Z,61.29
2018-04-28T20:53:39.877Z,60.05
2018-04-28T20:56:07.796Z,58.72
2018-04-28T20:58:35.834Z,58.79
2018-04-28T21:01:04.082Z,58.86
2018-04-28T21:03:32.219Z,60.31
2018-04-28T21:06:00.190Z,57.98
2018-04-28T21:08:28.596Z,59.86
2018-04-28T21:10:56.605Z,58.74
2018-04-28T21:13:24.620Z,58.28
2018-04-28T21:15:52.700Z,59.83
2018-04-28T21:18:20.770Z,58.95
2018-04-28T21:20:48.823Z,58.06
2018-04-28T21:23:16.822Z,58.11
2018-04-28T21:25:44.878Z,60.02
2018-04-28T21:28:12.930Z,59.39
2018-04-28T21:30:41.003Z,58.27
2018-04-28T21:33:08.998Z,59.62
2018-04-28T21:35:37.055Z,61.75
2018-04-28T21:38:05.046Z,61.50
2018-04-28T21:40:33.056Z,59.69
2018-04-28T21:43:01.042Z,58.28
2018-04-28T21:45:29.102Z,57.56
2018-04-28T21:47:57.151Z,57.29
2018-04-28T21:50:25.183Z,58.93
2018-04-28T21:52:53.205Z,60.61
2018-04-28T21:55:21.226Z,62.72
2018-04-28T21:57:49.273Z,62.93
2018-04-28T22:00:17.286Z,62.29
2018-04-28T22:02:45.268Z,61.16
2018-04-28T22:05:13.270Z,60.21
2018-04-28T22:07:41.295Z,62.12
2018-04-28T22:10:09.436Z,62.11
2018-04-28T22:12:37.452Z,59.40
2018-04-28T22:15:05.542Z,59.02
2018-04-28T22:17:33.588Z,58.47
2018-04-28T22:20:01.544Z,58.27
2018-04-28T22:22:29.582Z,57.94
2018-04-28T22:24:57.616Z,58.92
2018-04-28T22:27:25.679Z,58.38
2018-04-28T22:29:53.746Z,58.70
2018-04-28T22:32:21.770Z,59.66
2018-04-28T22:34:49.768Z,60.25
2018-04-28T22:37:17.813Z,62.02
2018-04-28T22:39:45.820Z,61.33
2018-04-28T22:42:13.873Z,59.44
2018-04-28T22:44:41.921Z,59.17
2018-04-28T22:47:09.876Z,59.35
2018-04-28T22:49:37.902Z,61.43
2018-04-28T22:52:05.922Z,60.19
2018-04-28T22:54:33.905Z,62.28
2018-04-28T22:57:01.892Z,61.49
2018-04-28T22:59:29.989Z,60.43
2018-04-28T23:01:58.060Z,60.23
2018-04-28T23:04:25.992Z,59.84
2018-04-28T23:06:54.088Z,59.47
2018-04-28T23:09:22.063Z,58.77
2018-04-28T23:11:50.583Z,60.75
2018-04-28T23:14:18.604Z,61.94
2018-04-28T23:16:46.588Z,61.27
2018-04-28T23:19:14.575Z,60.44
2018-04-28T23:21:42.577Z,61.68
2018-04-28T23:24:10.535Z,62.99
2018-04-28T23:26:38.521Z,63.60
2018-04-28T23:29:06.523Z,62.94
2018-04-28T23:31:34.530Z,64.62
2018-04-28T23:34:02.582Z,65.11
2018-04-28T23:36:30.672Z,65.98
2018-04-28T23:38:58.638Z,66.58
2018-04-28T23:41:26.624Z,63.18
2018-04-28T23:43:54.655Z,64.26
2018-04-28T23:46:22.692Z,62.44
2018-04-28T23:48:50.660Z,61.30
2018-04-28T23:51:18.709Z,60.93
2018-04-28T23:53:46.715Z,62.79
2018-04-28T23:56:14.813Z,62.68
2018-04-28T23:58:42.852Z,61.70
